Time;durP1;ratioP1;P1;durP2;ratioP2;P2;SDS_P1;SDS_P2;PMS_P1;PMS_P2;Temp;Humidity;BMP_temperature;BMP_pressure;BME280_temperature;BME280_humidity;BME280_pressure;Samples;Min_cycle;Max_cycle;Signal;HPM_P1;HPM_P2
2021/01/16 00:00:22;;;;;;;0.00;0.00;;;;;;;;;;4996921;28;20108;-65
2021/01/16 00:02:47;;;;;;;0.80;0.80;;;;;;;;;;4998008;28;20025;-64
2021/01/16 00:05:18;;;;;;;2.63;1.55;;;;;;;;;;4998560;28;20468;-65
2021/01/16 00:07:46;;;;;;;0.82;0.82;;;;;;;;;;4999144;28;20022;-64
2021/01/16 00:10:15;;;;;;;0.15;0.15;;;;;;;;;;4986342;28;20022;-63
2021/01/16 00:12:47;;;;;;;0.00;0.00;;;;;;;;;;4996966;28;21008;-65
2021/01/16 00:15:16;;;;;;;0.00;0.00;;;;;;;;;;4999368;28;20120;-65
2021/01/16 00:17:42;;;;;;;0.00;0.00;;;;;;;;;;4994891;28;20485;-65
2021/01/16 00:20:08;;;;;;;0.00;0.00;;;;;;;;;;4992047;28;20038;-64
2021/01/16 00:22:33;;;;;;;0.80;0.80;;;;;;;;;;4999314;28;21876;-65
2021/01/16 00:24:59;;;;;;;0.40;0.40;;;;;;;;;;4976904;28;20041;-64
2021/01/16 00:27:25;;;;;;;0.00;0.00;;;;;;;;;;4982304;28;20052;-64
2021/01/16 00:29:52;;;;;;;0.73;0.73;;;;;;;;;;4997871;28;20743;-65
2021/01/16 00:32:17;;;;;;;0.22;0.22;;;;;;;;;;4998471;28;20029;-64
2021/01/16 00:34:43;;;;;;;0.10;0.10;;;;;;;;;;4997373;28;20518;-64
2021/01/16 00:37:11;;;;;;;0.55;0.55;;;;;;;;;;4977398;28;20033;-64
2021/01/16 00:39:39;;;;;;;0.10;0.10;;;;;;;;;;4979295;28;20034;-64
2021/01/16 00:42:05;;;;;;;0.13;0.13;;;;;;;;;;4981063;28;20060;-65
2021/01/16 00:44:30;;;;;;;0.45;0.45;;;;;;;;;;4995313;28;20037;-64
2021/01/16 00:47:00;;;;;;;0.10;0.10;;;;;;;;;;4970314;28;20357;-66
2021/01/16 00:49:25;;;;;;;0.85;0.85;;;;;;;;;;4996480;28;20025;-64
2021/01/16 00:51:51;;;;;;;0.47;0.47;;;;;;;;;;5000297;28;20073;-64
2021/01/16 00:54:17;;;;;;;0.00;0.00;;;;;;;;;;4982186;28;20609;-64
2021/01/16 00:56:43;;;;;;;0.52;0.52;;;;;;;;;;4997277;28;20168;-63
2021/01/16 00:59:14;;;;;;;0.82;0.82;;;;;;;;;;4996977;28;20462;-64
2021/01/16 01:01:39;;;;;;;0.22;0.22;;;;;;;;;;4995881;28;20034;-64
2021/01/16 01:04:08;;;;;;;2.22;0.77;;;;;;;;;;4996084;28;21716;-64
2021/01/16 01:06:34;;;;;;;0.10;0.10;;;;;;;;;;4998410;28;20091;-63
2021/01/16 01:09:02;;;;;;;0.00;0.00;;;;;;;;;;4967872;28;20061;-66
2021/01/16 01:11:27;;;;;;;0.55;0.55;;;;;;;;;;4972474;28;20803;-64
2021/01/16 01:13:53;;;;;;;0.00;0.00;;;;;;;;;;4977131;28;20355;-64
2021/01/16 01:16:18;;;;;;;0.77;0.77;;;;;;;;;;4973071;28;20049;-63
2021/01/16 01:18:44;;;;;;;0.00;0.00;;;;;;;;;;4994963;28;20747;-64
2021/01/16 01:21:11;;;;;;;0.00;0.00;;;;;;;;;;4994735;28;20215;-64
2021/01/16 01:23:39;;;;;;;0.43;0.43;;;;;;;;;;4998294;28;20061;-65
2021/01/16 01:26:04;;;;;;;0.00;0.00;;;;;;;;;;4978014;28;20038;-65
2021/01/16 01:28:30;;;;;;;0.00;0.00;;;;;;;;;;4996838;28;20102;-65
2021/01/16 01:30:55;;;;;;;0.00;0.00;;;;;;;;;;4997170;28;20038;-64
2021/01/16 01:33:21;;;;;;;0.20;0.20;;;;;;;;;;4976934;28;20029;-64
2021/01/16 01:35:49;;;;;;;3.85;2.78;;;;;;;;;;4983295;28;20037;-64
2021/01/16 01:38:17;;;;;;;0.00;0.00;;;;;;;;;;4980420;28;20036;-64
2021/01/16 01:40:46;;;;;;;0.05;0.05;;;;;;;;;;4984160;28;20052;-63
2021/01/16 01:43:12;;;;;;;0.35;0.35;;;;;;;;;;4970702;28;20045;-62
2021/01/16 01:45:38;;;;;;;0.20;0.20;;;;;;;;;;4996871;28;20056;-64
2021/01/16 01:48:06;;;;;;;0.30;0.30;;;;;;;;;;4980814;28;20037;-64
2021/01/16 01:50:31;;;;;;;0.00;0.00;;;;;;;;;;4995641;28;20508;-64
2021/01/16 01:53:00;;;;;;;0.28;0.28;;;;;;;;;;4979525;28;20029;-63
2021/01/16 01:55:27;;;;;;;0.00;0.00;;;;;;;;;;4995678;28;20061;-64
2021/01/16 01:57:56;;;;;;;0.00;0.00;;;;;;;;;;4988225;28;20036;-64
2021/01/16 02:00:22;;;;;;;0.00;0.00;;;;;;;;;;4996973;28;20151;-64
2021/01/16 02:02:51;;;;;;;0.00;0.00;;;;;;;;;;4995864;28;20029;-64
2021/01/16 02:05:16;;;;;;;0.00;0.00;;;;;;;;;;4997687;28;20033;-63
2021/01/16 02:07:44;;;;;;;0.00;0.00;;;;;;;;;;4992722;28;20470;-64
2021/01/16 02:10:11;;;;;;;0.10;0.10;;;;;;;;;;4995863;28;20149;-64
2021/01/16 02:12:37;;;;;;;1.20;1.10;;;;;;;;;;4995336;28;20116;-63
2021/01/16 02:15:18;;;;;;;0.30;0.30;;;;;;;;;;4997570;28;20381;-63
2021/01/16 02:17:49;;;;;;;1.95;1.45;;;;;;;;;;4993871;28;20404;-64
2021/01/16 02:20:20;;;;;;;0.00;0.00;;;;;;;;;;4996822;28;20495;-64
2021/01/16 02:23:13;;;;;;;0.45;0.45;;;;;;;;;;4994136;28;20693;-64
2021/01/16 02:25:44;;;;;;;0.70;0.70;;;;;;;;;;4998063;28;20029;-64
2021/01/16 02:28:12;;;;;;;0.00;0.00;;;;;;;;;;4996320;28;20564;-64
2021/01/16 02:30:41;;;;;;;0.00;0.00;;;;;;;;;;4977774;28;20132;-63
2021/01/16 02:33:08;;;;;;;0.00;0.00;;;;;;;;;;4979659;28;20025;-63
2021/01/16 02:35:37;;;;;;;0.10;0.10;;;;;;;;;;4961338;28;20183;-65
2021/01/16 02:38:03;;;;;;;0.47;0.47;;;;;;;;;;4976956;28;20030;-64
2021/01/16 02:40:35;;;;;;;0.20;0.20;;;;;;;;;;4961604;28;20121;-64
2021/01/16 02:43:00;;;;;;;0.00;0.00;;;;;;;;;;4975096;28;20084;-64
2021/01/16 02:45:45;;;;;;;0.00;0.00;;;;;;;;;;4961657;28;20211;-63
2021/01/16 02:48:24;;;;;;;1.10;0.95;;;;;;;;;;4960540;28;20037;-63
2021/01/16 02:50:51;;;;;;;0.00;0.00;;;;;;;;;;4978107;28;20751;-64
2021/01/16 02:53:23;;;;;;;0.30;0.30;;;;;;;;;;4976444;28;20124;-64
2021/01/16 02:55:50;;;;;;;0.32;0.32;;;;;;;;;;4966903;28;20076;-65
2021/01/16 02:58:19;;;;;;;0.00;0.00;;;;;;;;;;4967110;28;20053;-64
2021/01/16 03:00:45;;;;;;;0.10;0.10;;;;;;;;;;4943762;28;20955;-63
2021/01/16 03:03:16;;;;;;;0.75;0.75;;;;;;;;;;4961201;28;20030;-63
2021/01/16 03:05:41;;;;;;;0.08;0.08;;;;;;;;;;4957222;28;20080;-63
2021/01/16 03:08:10;;;;;;;0.00;0.00;;;;;;;;;;4966941;28;20109;-64
2021/01/16 03:10:38;;;;;;;0.00;0.00;;;;;;;;;;4980958;28;20420;-64
2021/01/16 03:13:06;;;;;;;1.08;1.05;;;;;;;;;;4962002;28;20235;-64
2021/01/16 03:15:34;;;;;;;0.00;0.00;;;;;;;;;;4965204;28;20038;-64
2021/01/16 03:18:03;;;;;;;0.40;0.40;;;;;;;;;;4968575;28;20048;-63
2021/01/16 03:20:31;;;;;;;0.85;0.85;;;;;;;;;;4970289;28;20114;-63
2021/01/16 03:23:31;;;;;;;0.55;0.55;;;;;;;;;;4968287;28;20189;-64
2021/01/16 03:25:59;;;;;;;0.57;0.57;;;;;;;;;;4982824;28;20121;-63
2021/01/16 03:28:30;;;;;;;0.43;0.43;;;;;;;;;;4983152;28;20080;-63
2021/01/16 03:30:55;;;;;;;0.00;0.00;;;;;;;;;;4980977;28;20050;-63
2021/01/16 03:33:23;;;;;;;0.75;0.75;;;;;;;;;;4982284;28;20100;-63
2021/01/16 03:35:49;;;;;;;0.00;0.00;;;;;;;;;;4965377;28;20034;-64
2021/01/16 03:38:14;;;;;;;0.22;0.22;;;;;;;;;;4983205;28;20026;-63
2021/01/16 03:40:42;;;;;;;0.20;0.20;;;;;;;;;;4981312;28;20042;-63
2021/01/16 03:43:08;;;;;;;0.00;0.00;;;;;;;;;;4969959;28;20030;-63
2021/01/16 03:45:33;;;;;;;0.10;0.10;;;;;;;;;;4965074;28;20048;-65
2021/01/16 03:48:02;;;;;;;0.60;0.60;;;;;;;;;;4980592;28;20550;-63
2021/01/16 03:50:27;;;;;;;0.25;0.25;;;;;;;;;;4977645;28;20332;-64
2021/01/16 03:52:55;;;;;;;1.02;1.02;;;;;;;;;;4962072;28;20034;-63
2021/01/16 03:55:23;;;;;;;0.00;0.00;;;;;;;;;;4966332;28;20046;-63
2021/01/16 03:57:48;;;;;;;0.00;0.00;;;;;;;;;;4953225;28;20125;-63
2021/01/16 04:00:14;;;;;;;0.00;0.00;;;;;;;;;;4953333;28;20036;-63
2021/01/16 04:02:44;;;;;;;0.00;0.00;;;;;;;;;;4981178;28;20038;-63
2021/01/16 04:05:11;;;;;;;0.00;0.00;;;;;;;;;;4972777;28;20044;-63
2021/01/16 04:07:37;;;;;;;0.00;0.00;;;;;;;;;;4983514;28;20044;-63
2021/01/16 04:10:08;;;;;;;0.00;0.00;;;;;;;;;;4967657;28;20081;-63
2021/01/16 04:12:33;;;;;;;0.25;0.25;;;;;;;;;;4982240;28;20343;-64
2021/01/16 04:15:01;;;;;;;0.75;0.75;;;;;;;;;;4958887;28;20158;-64
2021/01/16 04:17:26;;;;;;;0.20;0.20;;;;;;;;;;4965060;28;20033;-63
2021/01/16 04:19:54;;;;;;;4.68;2.38;;;;;;;;;;4962404;28;20038;-63
2021/01/16 04:22:22;;;;;;;0.00;0.00;;;;;;;;;;4965481;28;20049;-63
2021/01/16 04:24:47;;;;;;;0.25;0.25;;;;;;;;;;4964799;28;20038;-63
2021/01/16 04:27:13;;;;;;;0.22;0.22;;;;;;;;;;4966373;28;20124;-64
2021/01/16 04:29:40;;;;;;;0.15;0.15;;;;;;;;;;4968946;28;20382;-63
2021/01/16 04:32:06;;;;;;;0.00;0.00;;;;;;;;;;4979969;28;20315;-63
2021/01/16 04:34:34;;;;;;;0.00;0.00;;;;;;;;;;4978913;28;20705;-63
2021/01/16 04:37:01;;;;;;;1.40;1.15;;;;;;;;;;4967186;28;20493;-64
2021/01/16 04:39:26;;;;;;;0.00;0.00;;;;;;;;;;4951109;28;20038;-63
2021/01/16 04:42:02;;;;;;;1.35;1.35;;;;;;;;;;4967377;28;20298;-63
2021/01/16 04:44:32;;;;;;;1.25;0.98;;;;;;;;;;4964779;28;20038;-65
2021/01/16 04:47:03;;;;;;;0.10;0.10;;;;;;;;;;4979282;28;20045;-64
2021/01/16 04:49:31;;;;;;;0.10;0.10;;;;;;;;;;4962759;28;20501;-64
2021/01/16 04:51:58;;;;;;;0.10;0.10;;;;;;;;;;4960743;28;20034;-63
2021/01/16 04:54:26;;;;;;;0.90;0.90;;;;;;;;;;4967407;28;20022;-64
2021/01/16 04:56:53;;;;;;;0.00;0.00;;;;;;;;;;4949817;28;20053;-64
2021/01/16 04:59:19;;;;;;;1.38;1.30;;;;;;;;;;4978573;28;20032;-64
2021/01/16 05:01:45;;;;;;;0.00;0.00;;;;;;;;;;4966412;28;20038;-64
2021/01/16 05:04:15;;;;;;;0.57;0.57;;;;;;;;;;4980409;28;20036;-63
2021/01/16 05:06:41;;;;;;;0.20;0.20;;;;;;;;;;4964201;28;20091;-64
2021/01/16 05:09:12;;;;;;;0.00;0.00;;;;;;;;;;4980129;28;20092;-64
2021/01/16 05:11:42;;;;;;;0.20;0.20;;;;;;;;;;4966419;28;20121;-64
2021/01/16 05:14:14;;;;;;;1.08;1.00;;;;;;;;;;4981014;28;20026;-64
2021/01/16 05:16:49;;;;;;;0.00;0.00;;;;;;;;;;4979610;28;20092;-64
2021/01/16 05:19:20;;;;;;;0.00;0.00;;;;;;;;;;4979730;28;20065;-63
2021/01/16 05:21:45;;;;;;;0.70;0.70;;;;;;;;;;4975543;28;20041;-63
2021/01/16 05:24:14;;;;;;;1.55;1.45;;;;;;;;;;4965705;28;20034;-63
2021/01/16 05:27:02;;;;;;;1.13;1.10;;;;;;;;;;4977165;28;20177;-63
2021/01/16 05:29:31;;;;;;;1.55;1.45;;;;;;;;;;4973952;28;20050;-64
2021/01/16 05:32:02;;;;;;;0.35;0.35;;;;;;;;;;4995197;28;20874;-63
2021/01/16 05:34:29;;;;;;;0.30;0.30;;;;;;;;;;4993139;28;20304;-63
2021/01/16 05:36:55;;;;;;;0.10;0.10;;;;;;;;;;4995062;28;20037;-65
2021/01/16 05:39:24;;;;;;;0.45;0.45;;;;;;;;;;4984892;28;20095;-63
2021/01/16 05:41:54;;;;;;;0.52;0.52;;;;;;;;;;4995268;28;20042;-63
2021/01/16 05:44:20;;;;;;;0.00;0.00;;;;;;;;;;4982037;28;20032;-62
2021/01/16 05:46:51;;;;;;;0.88;0.88;;;;;;;;;;4994438;28;20716;-63
2021/01/16 05:49:18;;;;;;;0.00;0.00;;;;;;;;;;4995431;28;20057;-64
2021/01/16 05:51:44;;;;;;;1.00;0.98;;;;;;;;;;4976686;28;20256;-64
2021/01/16 05:54:10;;;;;;;0.00;0.00;;;;;;;;;;4971928;28;20025;-64
2021/01/16 05:56:41;;;;;;;0.00;0.00;;;;;;;;;;4994992;28;20030;-64
2021/01/16 05:59:19;;;;;;;0.00;0.00;;;;;;;;;;4995093;28;20261;-64
2021/01/16 06:01:46;;;;;;;0.38;0.38;;;;;;;;;;4993704;28;20429;-64
2021/01/16 06:04:16;;;;;;;0.03;0.03;;;;;;;;;;4985760;28;20044;-64
2021/01/16 06:06:42;;;;;;;0.00;0.00;;;;;;;;;;4992646;28;20513;-64
2021/01/16 06:09:37;;;;;;;1.25;1.20;;;;;;;;;;4995236;28;20515;-64
2021/01/16 06:12:07;;;;;;;0.00;0.00;;;;;;;;;;4957678;28;20050;-65
2021/01/16 06:14:42;;;;;;;3.60;1.95;;;;;;;;;;4955791;28;20039;-64
2021/01/16 06:17:20;;;;;;;0.00;0.00;;;;;;;;;;4943386;28;20061;-64
2021/01/16 06:19:48;;;;;;;0.08;0.08;;;;;;;;;;4958674;28;20126;-65
2021/01/16 06:22:17;;;;;;;0.10;0.10;;;;;;;;;;4960359;28;20577;-64
2021/01/16 06:24:47;;;;;;;1.27;0.55;;;;;;;;;;4958497;28;20565;-63
2021/01/16 06:27:25;;;;;;;0.00;0.00;;;;;;;;;;4946257;28;20041;-64
2021/01/16 06:29:59;;;;;;;0.00;0.00;;;;;;;;;;4958024;28;20298;-64
2021/01/16 06:32:26;;;;;;;0.52;0.40;;;;;;;;;;4942151;28;20042;-64
2021/01/16 06:35:10;;;;;;;0.00;0.00;;;;;;;;;;4940916;28;20034;-65
2021/01/16 06:37:48;;;;;;;0.17;0.17;;;;;;;;;;4944037;28;20070;-64
2021/01/16 06:40:36;;;;;;;0.00;0.00;;;;;;;;;;4960412;28;20026;-63
2021/01/16 06:43:13;;;;;;;0.17;0.17;;;;;;;;;;4976507;28;20045;-64
2021/01/16 06:45:39;;;;;;;0.00;0.00;;;;;;;;;;4997084;28;20030;-64
2021/01/16 06:48:04;;;;;;;0.22;0.22;;;;;;;;;;4968970;28;20560;-64
2021/01/16 06:50:35;;;;;;;0.10;0.10;;;;;;;;;;4991728;28;20029;-64
2021/01/16 06:53:01;;;;;;;0.00;0.00;;;;;;;;;;4991422;28;20075;-64
2021/01/16 06:55:30;;;;;;;0.28;0.28;;;;;;;;;;4975433;28;20196;-65
2021/01/16 06:58:17;;;;;;;0.30;0.30;;;;;;;;;;4987331;28;20140;-64
2021/01/16 07:00:54;;;;;;;0.05;0.05;;;;;;;;;;4981777;28;20038;-64
2021/01/16 07:03:22;;;;;;;0.30;0.30;;;;;;;;;;4980202;28;20192;-64
2021/01/16 07:05:48;;;;;;;0.00;0.00;;;;;;;;;;4984980;28;20085;-64
2021/01/16 07:08:19;;;;;;;0.03;0.03;;;;;;;;;;4977677;28;20036;-64
2021/01/16 07:10:44;;;;;;;0.38;0.38;;;;;;;;;;4972704;28;20688;-64
2021/01/16 07:13:11;;;;;;;0.30;0.30;;;;;;;;;;4996736;28;20117;-64
2021/01/16 07:15:37;;;;;;;0.00;0.00;;;;;;;;;;4996167;28;20280;-65
2021/01/16 07:18:03;;;;;;;0.00;0.00;;;;;;;;;;4993266;28;20033;-65
2021/01/16 07:20:30;;;;;;;0.00;0.00;;;;;;;;;;4995669;28;20484;-64
2021/01/16 07:22:56;;;;;;;1.45;1.35;;;;;;;;;;4996245;28;20037;-64
2021/01/16 07:25:24;;;;;;;0.77;0.73;;;;;;;;;;4982710;28;20049;-63
2021/01/16 07:27:51;;;;;;;0.38;0.38;;;;;;;;;;4993472;28;20036;-64
2021/01/16 07:30:16;;;;;;;4.60;1.38;;;;;;;;;;4986454;28;20050;-64
2021/01/16 07:32:47;;;;;;;0.60;0.60;;;;;;;;;;4964424;28;20042;-64
2021/01/16 07:35:19;;;;;;;0.00;0.00;;;;;;;;;;4996685;28;20768;-64
2021/01/16 07:37:47;;;;;;;1.65;1.10;;;;;;;;;;4992284;28;22570;-64
2021/01/16 07:40:37;;;;;;;0.00;0.00;;;;;;;;;;4963701;28;20429;-64
2021/01/16 07:43:27;;;;;;;0.00;0.00;;;;;;;;;;4992030;28;20115;-63
2021/01/16 07:45:57;;;;;;;2.05;1.65;;;;;;;;;;4992667;28;20637;-64
2021/01/16 07:48:29;;;;;;;2.70;2.50;;;;;;;;;;4990855;28;20041;-64
2021/01/16 07:51:17;;;;;;;0.00;0.00;;;;;;;;;;4994929;28;20096;-64
2021/01/16 07:57:20;;;;;;;0.05;0.05;;;;;;;;;;4996453;28;20058;-65
2021/01/16 07:59:51;;;;;;;0.98;0.98;;;;;;;;;;4996221;28;20745;-63
2021/01/16 08:02:33;;;;;;;0.17;0.17;;;;;;;;;;4995130;28;20022;-63
2021/01/16 08:05:16;;;;;;;1.27;1.10;;;;;;;;;;5000189;28;20049;-64
2021/01/16 08:07:47;;;;;;;0.05;0.05;;;;;;;;;;4994540;28;21376;-64
2021/01/16 08:10:20;;;;;;;0.13;0.10;;;;;;;;;;4970901;28;20073;-65
2021/01/16 08:12:47;;;;;;;0.22;0.22;;;;;;;;;;4998429;28;20546;-64
2021/01/16 08:15:18;;;;;;;0.22;0.22;;;;;;;;;;4982516;28;20512;-64
2021/01/16 08:17:44;;;;;;;0.57;0.57;;;;;;;;;;4982783;28;20488;-64
2021/01/16 08:20:10;;;;;;;0.00;0.00;;;;;;;;;;4995771;28;20291;-64
2021/01/16 08:22:39;;;;;;;0.00;0.00;;;;;;;;;;4991585;28;20026;-65
2021/01/16 08:25:09;;;;;;;0.00;0.00;;;;;;;;;;4992849;28;20038;-65
2021/01/16 08:27:34;;;;;;;1.65;0.98;;;;;;;;;;4992521;28;20471;-63
2021/01/16 08:30:06;;;;;;;0.40;0.40;;;;;;;;;;4977433;28;20253;-64
2021/01/16 08:33:12;;;;;;;0.15;0.15;;;;;;;;;;4984149;28;20477;-64
2021/01/16 08:35:37;;;;;;;0.10;0.10;;;;;;;;;;4925349;28;20102;-64
2021/01/16 08:38:15;;;;;;;0.00;0.00;;;;;;;;;;4923903;28;20174;-63
2021/01/16 08:40:42;;;;;;;0.00;0.00;;;;;;;;;;4959882;28;20647;-65
2021/01/16 08:46:57;;;;;;;0.10;0.10;;;;;;;;;;4987171;28;20468;-64
2021/01/16 08:49:29;;;;;;;0.75;0.68;;;;;;;;;;4988231;28;21834;-66
2021/01/16 08:51:55;;;;;;;0.10;0.10;;;;;;;;;;4965655;28;20040;-65
2021/01/16 08:54:25;;;;;;;0.88;0.88;;;;;;;;;;4988259;28;20575;-65
2021/01/16 08:57:12;;;;;;;1.65;1.40;;;;;;;;;;4985551;28;21398;-66
2021/01/16 08:59:38;;;;;;;0.10;0.10;;;;;;;;;;4982656;28;20029;-65
2021/01/16 09:02:05;;;;;;;0.10;0.10;;;;;;;;;;4986093;28;20497;-63
2021/01/16 09:04:37;;;;;;;0.55;0.55;;;;;;;;;;4986819;28;20613;-65
2021/01/16 09:07:09;;;;;;;0.00;0.00;;;;;;;;;;4981922;28;20045;-64
2021/01/16 09:09:35;;;;;;;0.15;0.15;;;;;;;;;;4987443;28;20085;-63
2021/01/16 09:12:31;;;;;;;1.50;1.40;;;;;;;;;;4986256;28;20030;-64
2021/01/16 09:15:16;;;;;;;0.10;0.10;;;;;;;;;;4985330;28;20084;-65
2021/01/16 09:18:00;;;;;;;0.00;0.00;;;;;;;;;;4981763;28;20065;-65
2021/01/16 09:20:32;;;;;;;1.25;0.95;;;;;;;;;;4989721;28;20038;-63
2021/01/16 09:22:58;;;;;;;0.45;0.45;;;;;;;;;;4988927;28;20034;-64
2021/01/16 09:25:26;;;;;;;1.08;1.05;;;;;;;;;;4991792;28;20088;-63
2021/01/16 09:27:52;;;;;;;0.32;0.32;;;;;;;;;;4987924;28;20029;-63
2021/01/16 09:34:12;;;;;;;0.27;0.27;;;;;;;;;;4994343;28;20040;-65
2021/01/16 09:36:56;;;;;;;0.35;0.35;;;;;;;;;;4987748;28;21997;-64
2021/01/16 09:39:25;;;;;;;0.40;0.40;;;;;;;;;;4983464;28;20061;-63
2021/01/16 09:41:55;;;;;;;0.45;0.45;;;;;;;;;;4977281;28;20656;-63
2021/01/16 09:47:56;;;;;;;0.10;0.10;;;;;;;;;;4993234;28;20044;-64
2021/01/16 09:50:25;;;;;;;0.88;0.80;;;;;;;;;;4994727;28;20382;-64
2021/01/16 09:52:52;;;;;;;0.40;0.40;;;;;;;;;;4989711;28;20033;-64
2021/01/16 09:55:19;;;;;;;1.42;0.93;;;;;;;;;;4973293;28;22481;-64
2021/01/16 09:57:44;;;;;;;0.03;0.03;;;;;;;;;;4984249;28;20212;-63
2021/01/16 10:00:38;;;;;;;0.22;0.22;;;;;;;;;;4963503;28;20030;-64
2021/01/16 10:03:10;;;;;;;1.23;1.13;;;;;;;;;;4983745;28;20033;-63
2021/01/16 10:05:39;;;;;;;0.03;0.03;;;;;;;;;;4964666;28;20029;-63
2021/01/16 10:08:38;;;;;;;0.00;0.00;;;;;;;;;;4983784;28;20282;-64
2021/01/16 10:11:05;;;;;;;0.70;0.70;;;;;;;;;;4953746;28;20045;-63
2021/01/16 10:13:38;;;;;;;4.10;1.55;;;;;;;;;;4997231;28;20227;-65
2021/01/16 10:16:04;;;;;;;0.70;0.70;;;;;;;;;;4985855;28;20051;-64
2021/01/16 10:18:31;;;;;;;0.45;0.45;;;;;;;;;;4965840;28;20158;-66
2021/01/16 10:24:43;;;;;;;0.40;0.25;;;;;;;;;;4982395;28;20381;-64
2021/01/16 10:27:09;;;;;;;0.00;0.00;;;;;;;;;;4982586;28;20072;-63
2021/01/16 10:29:40;;;;;;;0.47;0.47;;;;;;;;;;4986012;28;20057;-64
2021/01/16 10:32:21;;;;;;;0.20;0.20;;;;;;;;;;4985518;28;20043;-64
2021/01/16 10:34:48;;;;;;;0.15;0.15;;;;;;;;;;4987330;28;20640;-64
2021/01/16 10:37:13;;;;;;;0.75;0.75;;;;;;;;;;4968550;28;20021;-64
2021/01/16 10:39:39;;;;;;;0.30;0.30;;;;;;;;;;4970504;28;20464;-65
2021/01/16 10:42:35;;;;;;;1.17;1.08;;;;;;;;;;4983309;28;20156;-63
2021/01/16 10:45:01;;;;;;;0.00;0.00;;;;;;;;;;4969242;28;20612;-64
2021/01/16 10:50:55;;;;;;;0.13;0.13;;;;;;;;;;4986776;28;20037;-64
2021/01/16 10:53:40;;;;;;;0.00;0.00;;;;;;;;;;4969917;28;20072;-64
2021/01/16 10:59:13;;;;;;;0.52;0.52;;;;;;;;;;4987737;28;21028;-63
2021/01/16 11:01:49;;;;;;;0.00;0.00;;;;;;;;;;4988870;28;22107;-64
2021/01/16 11:04:22;;;;;;;0.22;0.22;;;;;;;;;;4985907;28;20559;-63
2021/01/16 11:06:49;;;;;;;1.60;1.50;;;;;;;;;;4974111;28;20647;-64
2021/01/16 11:09:33;;;;;;;0.45;0.45;;;;;;;;;;4987624;28;21663;-65
2021/01/16 11:12:09;;;;;;;0.00;0.00;;;;;;;;;;4991390;28;20031;-65
2021/01/16 11:14:39;;;;;;;0.13;0.13;;;;;;;;;;4990254;28;20616;-66
2021/01/16 11:17:06;;;;;;;0.75;0.75;;;;;;;;;;4983924;28;20742;-64
2021/01/16 11:19:32;;;;;;;0.17;0.17;;;;;;;;;;4982477;28;20045;-65
2021/01/16 11:22:05;;;;;;;1.13;1.02;;;;;;;;;;4968663;28;20521;-62
2021/01/16 11:24:50;;;;;;;0.00;0.00;;;;;;;;;;4984292;28;20599;-63
2021/01/16 11:27:15;;;;;;;;;;;;;;;;;;4980486;28;20041;-64
2021/01/16 11:29:42;;;;;;;0.57;0.57;;;;;;;;;;4967400;28;19922;-64
2021/01/16 11:32:16;;;;;;;0.00;0.00;;;;;;;;;;4991150;28;20645;-65
2021/01/16 11:35:09;;;;;;;1.40;0.65;;;;;;;;;;4987609;28;20492;-64
2021/01/16 11:37:58;;;;;;;0.08;0.08;;;;;;;;;;4989549;28;20072;-62
2021/01/16 11:40:38;;;;;;;0.60;0.60;;;;;;;;;;4997355;28;20038;-66
2021/01/16 11:46:27;;;;;;;0.43;0.43;;;;;;;;;;4997188;28;20684;-65
2021/01/16 11:48:56;;;;;;;1.13;0.52;;;;;;;;;;4983591;28;20029;-64
2021/01/16 11:51:39;;;;;;;1.10;1.10;;;;;;;;;;4996967;28;21948;-64
2021/01/16 11:57:11;;;;;;;2.10;0.93;;;;;;;;;;4996359;28;20104;-65
2021/01/16 12:03:27;;;;;;;3.60;2.78;;;;;;;;;;4997376;28;20211;-66
2021/01/16 12:05:55;;;;;;;3.20;0.65;;;;;;;;;;4984216;28;20040;-62
2021/01/16 12:08:58;;;;;;;0.08;0.08;;;;;;;;;;4999639;28;20159;-66
2021/01/16 12:11:25;;;;;;;0.10;0.10;;;;;;;;;;4996157;28;20036;-65
2021/01/16 12:13:51;;;;;;;0.50;0.50;;;;;;;;;;4996968;28;20057;-66
2021/01/16 12:16:19;;;;;;;0.57;0.57;;;;;;;;;;5000295;28;20034;-65
2021/01/16 12:18:44;;;;;;;0.25;0.25;;;;;;;;;;4998041;28;20205;-65
2021/01/16 12:24:46;;;;;;;0.10;0.10;;;;;;;;;;4998152;28;20386;-65
2021/01/16 12:27:14;;;;;;;0.43;0.43;;;;;;;;;;4965732;28;20042;-65
2021/01/16 12:29:41;;;;;;;0.00;0.00;;;;;;;;;;4995276;28;20505;-65
2021/01/16 12:32:06;;;;;;;0.20;0.20;;;;;;;;;;4976794;28;20116;-64
2021/01/16 12:34:34;;;;;;;0.03;0.03;;;;;;;;;;4979676;28;20034;-65
2021/01/16 12:37:02;;;;;;;0.35;0.35;;;;;;;;;;4947165;28;20325;-66
2021/01/16 12:39:28;;;;;;;0.10;0.10;;;;;;;;;;4978617;28;20128;-65
2021/01/16 12:42:00;;;;;;;0.20;0.20;;;;;;;;;;4958797;28;20059;-66
2021/01/16 12:44:25;;;;;;;0.20;0.20;;;;;;;;;;4969725;28;20029;-65
2021/01/16 12:50:37;;;;;;;0.20;0.20;;;;;;;;;;4977599;28;20177;-66
2021/01/16 12:53:05;;;;;;;0.20;0.20;;;;;;;;;;4975265;28;20048;-65
2021/01/16 12:55:31;;;;;;;0.10;0.10;;;;;;;;;;4979137;28;20036;-66
2021/01/16 12:58:00;;;;;;;0.10;0.10;;;;;;;;;;4978469;28;20085;-68
2021/01/16 13:00:29;;;;;;;1.02;1.02;;;;;;;;;;4979637;28;20026;-68
2021/01/16 13:03:09;;;;;;;0.57;0.57;;;;;;;;;;4976307;28;20053;-67
2021/01/16 13:05:35;;;;;;;0.20;0.20;;;;;;;;;;4979443;28;20484;-68
2021/01/16 13:08:02;;;;;;;0.68;0.55;;;;;;;;;;4977362;28;20118;-68
2021/01/16 13:10:43;;;;;;;0.30;0.30;;;;;;;;;;4963356;28;20590;-68
2021/01/16 13:13:19;;;;;;;0.65;0.65;;;;;;;;;;4972318;28;20030;-68
2021/01/16 13:15:48;;;;;;;4.97;1.77;;;;;;;;;;4965095;28;20081;-69
2021/01/16 13:18:14;;;;;;;0.55;0.55;;;;;;;;;;4967220;28;20105;-70
2021/01/16 13:20:47;;;;;;;0.50;0.50;;;;;;;;;;4976325;28;20720;-68
2021/01/16 13:23:14;;;;;;;0.93;0.63;;;;;;;;;;4976093;28;20038;-69
2021/01/16 13:25:56;;;;;;;0.25;0.25;;;;;;;;;;4975365;28;20076;-69
2021/01/16 13:28:24;;;;;;;0.00;0.00;;;;;;;;;;4977717;28;20095;-70
2021/01/16 13:30:50;;;;;;;0.17;0.17;;;;;;;;;;4987110;28;20056;-69
2021/01/16 13:33:22;;;;;;;0.55;0.55;;;;;;;;;;4993002;28;20026;-69
2021/01/16 13:35:47;;;;;;;0.00;0.00;;;;;;;;;;4996564;28;20093;-70
2021/01/16 13:38:16;;;;;;;1.48;1.38;;;;;;;;;;4993568;28;20391;-70
2021/01/16 13:40:45;;;;;;;0.70;0.70;;;;;;;;;;4995730;28;20030;-70
2021/01/16 13:43:13;;;;;;;5.88;1.33;;;;;;;;;;4996830;28;20152;-70
2021/01/16 13:45:51;;;;;;;0.32;0.32;;;;;;;;;;4995048;28;20088;-71
2021/01/16 13:52:01;;;;;;;2.10;1.65;;;;;;;;;;4991941;28;20033;-70
2021/01/16 13:54:49;;;;;;;1.50;1.45;;;;;;;;;;4983452;28;20153;-71
2021/01/16 13:57:16;;;;;;;3.70;2.72;;;;;;;;;;4989901;28;20139;-70
2021/01/16 13:59:52;;;;;;;0.93;0.93;;;;;;;;;;4971536;28;20152;-70
2021/01/16 14:02:18;;;;;;;0.55;0.55;;;;;;;;;;4977253;28;20048;-70
2021/01/16 14:04:44;;;;;;;0.55;0.50;;;;;;;;;;4994516;28;21960;-71
2021/01/16 14:07:10;;;;;;;0.70;0.55;;;;;;;;;;4996008;28;20042;-70
2021/01/16 14:09:36;;;;;;;0.90;0.90;;;;;;;;;;4993203;28;20017;-69
2021/01/16 14:12:03;;;;;;;0.75;0.68;;;;;;;;;;4994379;28;20041;-70
2021/01/16 14:14:33;;;;;;;0.75;0.75;;;;;;;;;;4994871;28;20569;-70
2021/01/16 14:17:16;;;;;;;0.68;0.68;;;;;;;;;;4996589;28;20044;-70
2021/01/16 14:19:52;;;;;;;0.90;0.90;;;;;;;;;;4994505;28;20136;-70
2021/01/16 14:22:18;;;;;;;5.40;1.00;;;;;;;;;;4995500;28;20033;-70
2021/01/16 14:24:56;;;;;;;0.17;0.17;;;;;;;;;;4986681;28;20073;-72
2021/01/16 14:27:23;;;;;;;0.65;0.65;;;;;;;;;;4989941;28;20858;-72
2021/01/16 14:29:48;;;;;;;0.47;0.47;;;;;;;;;;4995472;28;20132;-71
2021/01/16 14:32:24;;;;;;;1.55;0.80;;;;;;;;;;4978816;28;20437;-72
2021/01/16 14:34:52;;;;;;;0.22;0.22;;;;;;;;;;4981577;28;20076;-71
2021/01/16 14:37:22;;;;;;;0.35;0.35;;;;;;;;;;4967749;28;20052;-70
2021/01/16 14:43:25;;;;;;;0.20;0.20;;;;;;;;;;4997719;28;21890;-72
2021/01/16 14:45:54;;;;;;;0.00;0.00;;;;;;;;;;4974515;28;20936;-73
2021/01/16 14:48:20;;;;;;;0.15;0.15;;;;;;;;;;4984197;28;20036;-72
2021/01/16 14:50:46;;;;;;;1.10;1.00;;;;;;;;;;4989299;28;20440;-70
2021/01/16 14:53:21;;;;;;;0.03;0.03;;;;;;;;;;4980734;28;20033;-72
2021/01/16 14:55:59;;;;;;;0.30;0.30;;;;;;;;;;4992321;28;21357;-71
2021/01/16 14:58:49;;;;;;;0.30;0.30;;;;;;;;;;4991154;28;20283;-71
2021/01/16 15:01:39;;;;;;;0.00;0.00;;;;;;;;;;4992922;28;20033;-71
2021/01/16 15:04:05;;;;;;;0.32;0.32;;;;;;;;;;4994899;28;20515;-71
2021/01/16 15:06:49;;;;;;;0.20;0.20;;;;;;;;;;4976462;28;20136;-72
2021/01/16 15:09:52;;;;;;;0.60;0.43;;;;;;;;;;4991590;28;20144;-71
2021/01/16 15:12:17;;;;;;;2.55;0.95;;;;;;;;;;4994326;28;20486;-71
2021/01/16 15:14:46;;;;;;;0.22;0.22;;;;;;;;;;4994528;28;20038;-71
2021/01/16 15:17:14;;;;;;;0.10;0.10;;;;;;;;;;4989410;28;20021;-71
2021/01/16 15:19:58;;;;;;;1.42;1.40;;;;;;;;;;4982846;28;20087;-71
2021/01/16 15:22:23;;;;;;;0.15;0.15;;;;;;;;;;4974489;28;20037;-71
2021/01/16 15:24:51;;;;;;;1.20;1.10;;;;;;;;;;4994150;28;20062;-71
2021/01/16 15:27:17;;;;;;;0.00;0.00;;;;;;;;;;4989805;28;20034;-72
2021/01/16 15:29:43;;;;;;;0.00;0.00;;;;;;;;;;4991776;28;20393;-71
2021/01/16 15:32:24;;;;;;;0.25;0.25;;;;;;;;;;4971759;28;20037;-71
2021/01/16 15:34:49;;;;;;;0.10;0.10;;;;;;;;;;4975722;28;20038;-71
2021/01/16 15:37:39;;;;;;;1.90;0.98;;;;;;;;;;4959512;28;20037;-70
2021/01/16 15:40:05;;;;;;;0.10;0.10;;;;;;;;;;4990560;28;20085;-71
2021/01/16 15:42:31;;;;;;;0.00;0.00;;;;;;;;;;4963124;28;20034;-71
2021/01/16 15:45:06;;;;;;;0.10;0.10;;;;;;;;;;4983363;28;20038;-70
2021/01/16 15:47:43;;;;;;;1.65;0.85;;;;;;;;;;4991888;28;20112;-70
2021/01/16 15:50:27;;;;;;;0.52;0.52;;;;;;;;;;4993432;28;21011;-69
2021/01/16 15:52:53;;;;;;;0.00;0.00;;;;;;;;;;4994620;28;20526;-72